Airport Name : Dakhla

Other Name : Dakhla

ICAO : GMMH

IATA : VIL

FAA :

Latitude : 23.718294

Longitude : -15.931994

Country : Western Sahara

Local Date and Time : 6/18/2018 7:47:00 PM

 

TAF (Terminal Aerodrome Forecast)

TAF GMMH 181700Z 1818/1924 01019KT 8000 SCT016 TEMPO 1820/1912 OVC013

 

METAR (METeorological Aerodrome Report)

GMMH 181800Z 01016KT CAVOK 21/17 Q1016 NOSIG

GMMH 181700Z 01018KT CAVOK Q1016 NOSIG

GMMH 181600Z 01018KT CAVOK 21/17 Q1016 NOSIG

GMMH 181500Z 01019KT CAVOK 22/17 Q1016 NOSIG